Arklow Rogue — EIGD — position and weather

sailwx.info

Track history (hours):
 
Tides and Currents Weather Stations Pressure Air Temp Water Temp Dewpoint Dewpoint Depression Visibility Wind Speed Wind Dir Waves Ship Positions

Arklow Rogue

Last reported at 2016-May-30 04:31 UTC. Time now 2016-May-30 04:56 UTC.
Position N 46°30' W 001°48'.

Length 90 m; draft 3.4 m.

Type: Cargo ship. MMSI: 250000960.

Date/timePositionNaut miles runAvg speedWind from/ knotsBaromVisibWave heightAir tempDewpointWater temp
2016-May-30 04:31N 46°30' W 001°48'0 0.0
2016-May-30 03:31N 46°30' W 001°48'0 0.0
2016-May-30 02:31N 46°30' W 001°48'0 0.0
2016-May-30 01:31N 46°30' W 001°48'0 0.0
2016-May-30 00:31N 46°30' W 001°48'0 0.0
2016-May-29 23:31N 46°30' W 001°48'0 0.0
2016-May-29 22:31N 46°30' W 001°48'0 0.0
2016-May-29 21:31N 46°30' W 001°48'0 0.0
2016-May-29 20:31N 46°30' W 001°48'0 0.0
2016-May-29 19:31N 46°30' W 001°48'0 0.0
2016-May-29 18:31N 46°30' W 001°48'0 0.0
2016-May-29 17:31N 46°30' W 001°48'0 0.0
2016-May-29 16:31N 46°30' W 001°48'0 0.0
2016-May-29 15:31N 46°30' W 001°48'0 0.0
2016-May-29 14:31N 46°30' W 001°48'0 0.0
2016-May-29 13:31N 46°30' W 001°48'0 0.0
2016-May-29 12:31N 46°30' W 001°48'0 0.0
2016-May-29 11:31N 46°30' W 001°48'0 0.0
2016-May-29 10:33N 46°30' W 001°48'0 0.0
2016-May-29 09:33N 46°30' W 001°48'0 0.5
2016-May-29 08:33N 46°29' W 001°48'3 2.7
2016-May-29 07:33N 46°27' W 001°49'8 8.3
2016-May-29 06:33N 46°20' W 001°56'7 7.6
2016-May-29 05:33N 46°15' W 002°03'191 9.4
2016-May-28 09:20N 43°56' W 005°10'810.5
2016-May-28 08:32N 43°50' W 005°18'1010.7
2016-May-28 07:33N 43°42' W 005°28'1310.2
2016-May-28 06:16N 43°34' W 005°42'0 0.1
2016-May-28 04:20N 43°34' W 005°42'0 0.0
2016-May-28 03:26N 43°34' W 005°42'0 0.0
2016-May-28 02:26N 43°34' W 005°42'0 0.0
2016-May-28 01:20N 43°34' W 005°42'0 0.0
2016-May-27 17:32N 43°34' W 005°42'0 0.0
2016-May-27 13:08N 43°34' W 005°42'0 0.0
2016-May-27 12:26N 43°34' W 005°42'0 0.0
2016-May-27 11:26N 43°34' W 005°42'0 0.0
2016-May-27 05:26N 43°34' W 005°42'0 0.0
2016-May-27 04:32N 43°34' W 005°42'0 0.0
2016-May-27 01:08N 43°34' W 005°42'0 0.0
2016-May-26 16:26N 43°34' W 005°42'0 0.0
2016-May-26 15:32N 43°34' W 005°42'1 0.6
2016-May-26 13:33N 43°34' W 005°40'1010.3
2016-May-26 12:33N 43°42' W 005°50'1212.1
2016-May-26 11:34N 43°44' W 006°07'1411.9
2016-May-26 10:25N 43°45' W 006°25'314 9.5
2016-May-25 01:31N 39°11' W 009°50'1212.0
2016-May-25 00:33N 38°59' W 009°50'2511.6
2016-May-24 22:22N 38°34' W 009°47'1211.6
2016-May-24 21:22N 38°22' W 009°44'1411.4
2016-May-24 20:10N 38°09' W 009°40'103 9.5
2016-May-24 09:21N 36°44' W 008°28'911.3
2016-May-24 08:33N 36°44' W 008°17'2611.6
2016-May-24 06:17N 36°45' W 007°44'811.3
2016-May-24 05:33N 36°45' W 007°34'1111.5
2016-May-24 04:34N 36°45' W 007°19'1211.7
2016-May-24 03:34N 36°45' W 007°05'1211.9
2016-May-24 02:32N 36°46' W 006°49'  
2016-May-20 08:33N 37°34' W 009°47'1010.0
2016-May-20 07:32N 37°44' W 009°49'14 9.8
2016-May-20 06:09N 37°57' W 009°53'  
Track history (hours):
 
Tides and Currents Weather Stations Pressure Air Temp Water Temp Dewpoint Dewpoint Depression Visibility Wind Speed Wind Dir Waves Ship Positions

Arklow Rogue

Last reported at 2016-May-30 04:31 UTC. Time now 2016-May-30 04:56 UTC.
Position N 46°30' W 001°48'.

Length 90 m; draft 3.4 m.

Type: Cargo ship. MMSI: 250000960.

Date/timePositionNaut miles runAvg speedWind from/ knotsBaromVisibWave heightAir tempDewpointWater temp
2016-May-30 04:31N 46°30' W 001°48'0 0.0
2016-May-30 03:31N 46°30' W 001°48'0 0.0
2016-May-30 02:31N 46°30' W 001°48'0 0.0
2016-May-30 01:31N 46°30' W 001°48'0 0.0
2016-May-30 00:31N 46°30' W 001°48'0 0.0
2016-May-29 23:31N 46°30' W 001°48'0 0.0
2016-May-29 22:31N 46°30' W 001°48'0 0.0
2016-May-29 21:31N 46°30' W 001°48'0 0.0
2016-May-29 20:31N 46°30' W 001°48'0 0.0
2016-May-29 19:31N 46°30' W 001°48'0 0.0
2016-May-29 18:31N 46°30' W 001°48'0 0.0
2016-May-29 17:31N 46°30' W 001°48'0 0.0
2016-May-29 16:31N 46°30' W 001°48'0 0.0
2016-May-29 15:31N 46°30' W 001°48'0 0.0
2016-May-29 14:31N 46°30' W 001°48'0 0.0
2016-May-29 13:31N 46°30' W 001°48'0 0.0
2016-May-29 12:31N 46°30' W 001°48'0 0.0
2016-May-29 11:31N 46°30' W 001°48'0 0.0
2016-May-29 10:33N 46°30' W 001°48'0 0.0
2016-May-29 09:33N 46°30' W 001°48'0 0.5
2016-May-29 08:33N 46°29' W 001°48'3 2.7
2016-May-29 07:33N 46°27' W 001°49'8 8.3
2016-May-29 06:33N 46°20' W 001°56'7 7.6
2016-May-29 05:33N 46°15' W 002°03'191 9.4
2016-May-28 09:20N 43°56' W 005°10'810.5
2016-May-28 08:32N 43°50' W 005°18'1010.7
2016-May-28 07:33N 43°42' W 005°28'1310.2
2016-May-28 06:16N 43°34' W 005°42'0 0.1
2016-May-28 04:20N 43°34' W 005°42'0 0.0
2016-May-28 03:26N 43°34' W 005°42'0 0.0
2016-May-28 02:26N 43°34' W 005°42'0 0.0
2016-May-28 01:20N 43°34' W 005°42'0 0.0
2016-May-27 17:32N 43°34' W 005°42'0 0.0
2016-May-27 13:08N 43°34' W 005°42'0 0.0
2016-May-27 12:26N 43°34' W 005°42'0 0.0
2016-May-27 11:26N 43°34' W 005°42'0 0.0
2016-May-27 05:26N 43°34' W 005°42'0 0.0
2016-May-27 04:32N 43°34' W 005°42'0 0.0
2016-May-27 01:08N 43°34' W 005°42'0 0.0
2016-May-26 16:26N 43°34' W 005°42'0 0.0
2016-May-26 15:32N 43°34' W 005°42'1 0.6
2016-May-26 13:33N 43°34' W 005°40'1010.3
2016-May-26 12:33N 43°42' W 005°50'1212.1
2016-May-26 11:34N 43°44' W 006°07'1411.9
2016-May-26 10:25N 43°45' W 006°25'314 9.5
2016-May-25 01:31N 39°11' W 009°50'1212.0
2016-May-25 00:33N 38°59' W 009°50'2511.6
2016-May-24 22:22N 38°34' W 009°47'1211.6
2016-May-24 21:22N 38°22' W 009°44'1411.4
2016-May-24 20:10N 38°09' W 009°40'103 9.5
2016-May-24 09:21N 36°44' W 008°28'911.3
2016-May-24 08:33N 36°44' W 008°17'2611.6
2016-May-24 06:17N 36°45' W 007°44'811.3
2016-May-24 05:33N 36°45' W 007°34'1111.5
2016-May-24 04:34N 36°45' W 007°19'1211.7
2016-May-24 03:34N 36°45' W 007°05'1211.9
2016-May-24 02:32N 36°46' W 006°49'  
2016-May-20 08:33N 37°34' W 009°47'1010.0
2016-May-20 07:32N 37°44' W 009°49'14 9.8
2016-May-20 06:09N 37°57' W 009°53'  

Dump ship's entire track history